Sand Ridge, Illinois
Current Conditions -  °F | °C
As of 12:17 AM on Sunday 26 Oct 2014 (Local Time) from KMDH Reporting Station
Haze Haze  
Wind Chill: 53°   Ceiling: Unl
Heat Index: 53°   Visibility: 6mi
Dew Point: 52°   Wind: 0mph
Humidity: 96%   Direction: NA
Pressure: 30.01"   Gusts: NA
Location:  37.7438°N, 89.4409°W
Report Text: KMDH 260517Z AUTO 00000KT 6SM BR CLR 12/11 A3001 RMK AO2 T01170111
Loading
Personal Weather Stations






























Interactive Weather Map
Tropical Storm Tracking
New forecast layout! Learn more

10-Day Weather Forecast

Advertisements
Track Severe Weather on mobile